Impacts TAF Board
For situational awareness. Not to be used for flight planning purposes.
IDs:

KEWR - Newark Intl, NJ, US

Issued at 0229 UTC 19 Feb 2019
Updated at 0312 UTC 19 Feb 2019
Potential Impact None Slight Moderate High
Time0251Z 19/04Z 19/05Z 19/06Z 19/07Z 19/08Z 19/09Z 19/10Z 19/11Z 19/12Z 19/13Z 19/14Z 19/15Z 19/16Z>>
Type OBS PRVL PRVL PRVL PRVL PRVL PRVL PRVL PRVL PRVL PRVL PRVL PRVL PRVL
VIS 10 >6 >6 >6 >6 >6 >6 >6 >6 >6 >6 >6 >6 >6
CIG -- -- -- -- -- -- -- -- -- -- -- -- -- --
Cover FEW FEW FEW SKC SKC SKC FEW FEW FEW FEW FEW FEW FEW FEW
FltCat VFR VFR VFR VFR VFR VFR VFR VFR VFR VFR VFR VFR VFR VFR
WX -- -- -- -- -- -- -- -- -- -- -- -- -- --
WDir 310 310 310 310 310 310 330 330 330 330 330 330 330 330
WSpd 14 14 14 13 13 13 8 8 8 8 8 8 8 8
WGst -- 23 23 -- -- -- -- -- -- -- -- -- -- --
Raw TAF
KEWR 190229Z 1902/2006 31014G23KT P6SM FEW035
  FM190600 31013KT P6SM SKC
  FM190900 33008KT P6SM FEW250
  FM191800 31010KT P6SM FEW030
  FM200200 33007KT P6SM SKC


Raw METAR
KEWR 190251Z 31014KT 10SM FEW035 M02/M11 A3029 RMK AO2 PK WND 31030/0211 SLP256 T10221111 51042
KEWR 190151Z 31011G20KT 10SM FEW035 FEW250 M02/M10 A3025 RMK AO2 SLP242 T10171100
KEWR 190051Z 30017G26KT 10SM FEW035 FEW250 M01/M09 A3021 RMK AO2 PK WND 30028/0029 SLP228 T10061094

METAR Board
Radar Display
Forecast Discussion
For situational awareness. Not to be used for flight planning purposes.